Time;durP1;ratioP1;P1;durP2;ratioP2;P2;SDS_P1;SDS_P2;PMS_P1;PMS_P2;Temp;Humidity;BMP_temperature;BMP_pressure;BME280_temperature;BME280_humidity;BME280_pressure;Samples;Min_cycle;Max_cycle;Signal;HPM_P1;HPM_P2
2022/02/15 00:00:52;;;;;;;22.84;10.58;;;;;;;;;;358146;147;860822;-60
2022/02/15 00:01:54;;;;;;;31.21;11.56;;;;;;;;;;357584;148;856332;-60
2022/02/15 00:02:55;;;;;;;31.84;12.79;;;;;;;;;;357189;147;864100;-60
2022/02/15 00:03:57;;;;;;;27.77;11.31;;;;;;;;;;359476;147;858538;-60
2022/02/15 00:04:58;;;;;;;40.56;13.89;;;;;;;;;;357868;147;857235;-60
2022/02/15 00:06:00;;;;;;;55.86;18.49;;;;;;;;;;358840;148;864133;-60
2022/02/15 00:07:02;;;;;;;39.23;13.16;;;;;;;;;;358332;147;856520;-60
2022/02/15 00:08:04;;;;;;;28.39;11.89;;;;;;;;;;358448;147;856157;-60
2022/02/15 00:09:06;;;;;;;32.39;11.75;;;;;;;;;;357299;148;863994;-60
2022/02/15 00:10:09;;;;;;;26.85;10.44;;;;;;;;;;357479;148;856113;-60
2022/02/15 00:11:10;;;;;;;42.02;12.71;;;;;;;;;;356551;147;856145;-60
2022/02/15 00:12:12;;;;;;;35.73;12.94;;;;;;;;;;358794;147;863881;-60
2022/02/15 00:13:14;;;;;;;42.02;13.74;;;;;;;;;;356513;148;856294;-60
2022/02/15 00:14:15;;;;;;;97.62;21.38;;;;;;;;;;358583;147;856335;-59
2022/02/15 00:15:17;;;;;;;44.81;12.87;;;;;;;;;;357632;147;863833;-60
2022/02/15 00:16:20;;;;;;;42.18;12.94;;;;;;;;;;358909;148;862640;-60
2022/02/15 00:17:21;;;;;;;46.25;13.03;;;;;;;;;;356039;147;856330;-60
2022/02/15 00:18:23;;;;;;;32.53;11.71;;;;;;;;;;358991;147;863734;-61
2022/02/15 00:19:24;;;;;;;55.44;15.58;;;;;;;;;;357370;147;856816;-60
2022/02/15 00:20:27;;;;;;;40.56;12.14;;;;;;;;;;358662;148;857031;-60
2022/02/15 00:21:29;;;;;;;35.38;11.71;;;;;;;;;;358192;147;863138;-60
2022/02/15 00:22:31;;;;;;;35.80;12.04;;;;;;;;;;360426;147;856037;-60
2022/02/15 00:23:32;;;;;;;34.32;11.74;;;;;;;;;;357900;148;863993;-60
2022/02/15 00:24:34;;;;;;;30.87;11.02;;;;;;;;;;356709;147;864194;-60
2022/02/15 00:25:35;;;;;;;29.56;10.61;;;;;;;;;;357575;148;856617;-60
2022/02/15 00:26:37;;;;;;;50.38;13.51;;;;;;;;;;358958;147;856313;-60
2022/02/15 00:27:39;;;;;;;45.26;14.06;;;;;;;;;;357289;149;856450;-60
2022/02/15 00:28:40;;;;;;;35.56;12.26;;;;;;;;;;357718;147;856192;-60
2022/02/15 00:29:42;;;;;;;29.07;10.70;;;;;;;;;;358188;148;864033;-60
2022/02/15 00:30:43;;;;;;;26.06;10.47;;;;;;;;;;358708;148;864060;-60
2022/02/15 00:31:45;;;;;;;43.43;13.42;;;;;;;;;;355830;147;856687;-60
2022/02/15 00:32:46;;;;;;;38.86;11.92;;;;;;;;;;356090;148;856732;-60
2022/02/15 00:33:48;;;;;;;74.45;17.85;;;;;;;;;;359112;147;856505;-60
2022/02/15 00:34:49;;;;;;;96.03;19.85;;;;;;;;;;358802;148;861566;-60
2022/02/15 00:35:51;;;;;;;30.29;10.30;;;;;;;;;;359760;147;863888;-60
2022/02/15 00:36:52;;;;;;;64.44;15.77;;;;;;;;;;356566;148;856385;-60
2022/02/15 00:37:54;;;;;;;192.91;36.62;;;;;;;;;;356131;149;856585;-60
2022/02/15 00:38:56;;;;;;;51.26;14.89;;;;;;;;;;358838;147;859717;-60
2022/02/15 00:39:57;;;;;;;37.73;12.19;;;;;;;;;;358057;148;857394;-61
2022/02/15 00:40:59;;;;;;;37.40;12.19;;;;;;;;;;359061;147;857091;-60
2022/02/15 00:42:00;;;;;;;54.12;15.39;;;;;;;;;;357271;147;856878;-60
2022/02/15 00:43:02;;;;;;;50.91;16.29;;;;;;;;;;358131;147;864007;-60
2022/02/15 00:44:03;;;;;;;39.79;14.09;;;;;;;;;;357591;148;857004;-60
2022/02/15 00:45:05;;;;;;;34.85;11.57;;;;;;;;;;357475;147;856553;-60
2022/02/15 00:46:07;;;;;;;36.53;12.50;;;;;;;;;;358882;148;864366;-60
2022/02/15 00:47:08;;;;;;;34.96;12.52;;;;;;;;;;358509;148;856725;-60
2022/02/15 00:48:10;;;;;;;40.65;12.52;;;;;;;;;;349354;151;863907;-60
2022/02/15 00:49:11;;;;;;;48.71;15.30;;;;;;;;;;359452;147;856701;-60
2022/02/15 00:50:13;;;;;;;54.57;15.87;;;;;;;;;;358955;148;857631;-60
2022/02/15 00:51:15;;;;;;;40.54;14.03;;;;;;;;;;357910;147;856112;-60
2022/02/15 00:52:17;;;;;;;42.29;13.80;;;;;;;;;;357544;147;857398;-60
2022/02/15 00:53:18;;;;;;;40.41;14.93;;;;;;;;;;358066;147;863558;-61
2022/02/15 00:54:20;;;;;;;30.19;12.83;;;;;;;;;;356489;148;857594;-60
2022/02/15 00:55:21;;;;;;;26.49;11.59;;;;;;;;;;358599;148;856392;-60
2022/02/15 00:56:24;;;;;;;28.54;11.74;;;;;;;;;;357255;147;856220;-61
2022/02/15 00:57:26;;;;;;;25.21;11.43;;;;;;;;;;357499;147;856568;-60
2022/02/15 00:58:28;;;;;;;27.14;12.66;;;;;;;;;;357982;147;863562;-60
2022/02/15 00:59:29;;;;;;;25.06;11.74;;;;;;;;;;360227;147;859665;-60
2022/02/15 01:00:31;;;;;;;21.89;11.16;;;;;;;;;;359745;148;856316;-60
2022/02/15 01:01:32;;;;;;;23.80;10.36;;;;;;;;;;359520;148;864271;-60
2022/02/15 01:02:34;;;;;;;24.91;10.16;;;;;;;;;;358684;148;856306;-60
2022/02/15 01:03:36;;;;;;;23.42;11.05;;;;;;;;;;358205;147;861439;-59
2022/02/15 01:04:37;;;;;;;25.38;10.64;;;;;;;;;;358257;149;863742;-60
2022/02/15 01:05:39;;;;;;;20.72;10.24;;;;;;;;;;358243;149;856306;-60
2022/02/15 01:08:42;;;;;;;23.39;10.48;;;;;;;;;;358171;148;856643;-59
2022/02/15 01:09:44;;;;;;;24.99;11.22;;;;;;;;;;357771;148;856806;-61
2022/02/15 01:10:48;;;;;;;21.56;10.49;;;;;;;;;;358919;147;856659;-60
2022/02/15 01:11:50;;;;;;;26.17;11.36;;;;;;;;;;358466;147;863788;-60
2022/02/15 01:12:52;;;;;;;23.98;11.73;;;;;;;;;;360222;147;856640;-61
2022/02/15 01:13:53;;;;;;;26.16;12.00;;;;;;;;;;358349;147;863972;-60
2022/02/15 01:14:55;;;;;;;25.61;11.35;;;;;;;;;;358710;147;864320;-60
2022/02/15 01:15:56;;;;;;;24.54;10.58;;;;;;;;;;358712;148;858544;-61
2022/02/15 01:16:58;;;;;;;25.04;11.01;;;;;;;;;;356771;148;860040;-60
2022/02/15 01:17:59;;;;;;;19.33;10.37;;;;;;;;;;356953;147;863962;-60
2022/02/15 01:19:01;;;;;;;26.37;10.94;;;;;;;;;;357609;147;863786;-60
2022/02/15 01:20:03;;;;;;;23.66;10.86;;;;;;;;;;357801;147;862092;-61
2022/02/15 01:21:05;;;;;;;32.99;12.76;;;;;;;;;;358628;147;863676;-60
2022/02/15 01:22:06;;;;;;;46.71;14.56;;;;;;;;;;359462;147;856418;-60
2022/02/15 01:23:08;;;;;;;61.66;16.40;;;;;;;;;;358835;148;863710;-60
2022/02/15 01:24:09;;;;;;;73.85;18.71;;;;;;;;;;356265;147;863351;-60
2022/02/15 01:25:11;;;;;;;58.84;17.08;;;;;;;;;;359730;147;863811;-60
2022/02/15 01:26:13;;;;;;;84.57;20.46;;;;;;;;;;358945;147;856532;-60
2022/02/15 01:27:14;;;;;;;83.83;21.31;;;;;;;;;;358658;147;856435;-60
2022/02/15 01:28:16;;;;;;;81.76;18.86;;;;;;;;;;345843;153;863854;-61
2022/02/15 01:29:17;;;;;;;71.67;17.73;;;;;;;;;;349953;151;859813;-61
2022/02/15 01:30:20;;;;;;;39.86;14.99;;;;;;;;;;349385;151;862331;-60
2022/02/15 01:31:22;;;;;;;30.86;11.75;;;;;;;;;;348724;151;856182;-60
2022/02/15 01:32:23;;;;;;;21.51;10.42;;;;;;;;;;358332;147;863791;-60
2022/02/15 01:33:25;;;;;;;21.87;9.92;;;;;;;;;;359735;148;864525;-61
2022/02/15 01:34:26;;;;;;;22.96;10.71;;;;;;;;;;356926;147;856155;-60
2022/02/15 01:35:28;;;;;;;23.64;10.45;;;;;;;;;;357774;147;859886;-60
2022/02/15 01:36:29;;;;;;;23.11;10.58;;;;;;;;;;351173;150;856056;-60
2022/02/15 01:37:31;;;;;;;27.98;11.79;;;;;;;;;;349415;151;859911;-61
2022/02/15 01:38:32;;;;;;;30.79;11.92;;;;;;;;;;357661;147;860190;-60
2022/02/15 01:39:34;;;;;;;27.74;11.80;;;;;;;;;;358321;148;864353;-60
2022/02/15 01:40:35;;;;;;;24.74;10.81;;;;;;;;;;357287;148;856440;-60
2022/02/15 01:41:37;;;;;;;22.04;10.14;;;;;;;;;;358750;147;863729;-60
2022/02/15 01:42:39;;;;;;;27.98;11.68;;;;;;;;;;359160;147;863734;-60
2022/02/15 01:43:41;;;;;;;26.31;11.03;;;;;;;;;;357937;148;863912;-60
2022/02/15 01:44:42;;;;;;;24.19;10.60;;;;;;;;;;356637;147;856379;-61
2022/02/15 01:45:44;;;;;;;17.32;8.41;;;;;;;;;;358988;147;856749;-60
2022/02/15 01:46:46;;;;;;;19.66;8.60;;;;;;;;;;359423;147;863910;-60
2022/02/15 01:47:47;;;;;;;17.17;8.52;;;;;;;;;;357909;148;864472;-60
2022/02/15 01:48:49;;;;;;;13.69;7.76;;;;;;;;;;358743;147;863936;-60
2022/02/15 01:49:51;;;;;;;17.49;7.49;;;;;;;;;;358127;147;856223;-60
2022/02/15 01:50:52;;;;;;;17.73;7.17;;;;;;;;;;358664;148;864454;-60
2022/02/15 01:51:54;;;;;;;14.50;7.76;;;;;;;;;;359118;148;863997;-60
2022/02/15 01:52:55;;;;;;;16.24;7.36;;;;;;;;;;357628;147;864656;-60
2022/02/15 01:53:57;;;;;;;14.61;8.03;;;;;;;;;;358365;147;864132;-60
2022/02/15 01:54:59;;;;;;;14.23;7.58;;;;;;;;;;357009;148;862419;-60
2022/02/15 01:56:00;;;;;;;19.35;7.50;;;;;;;;;;360159;147;856333;-60
2022/02/15 01:57:03;;;;;;;12.64;6.74;;;;;;;;;;359071;148;856380;-60
2022/02/15 01:58:05;;;;;;;12.63;7.25;;;;;;;;;;354571;148;859675;-60
2022/02/15 01:59:06;;;;;;;11.86;6.59;;;;;;;;;;344712;153;856210;-60
2022/02/15 02:00:10;;;;;;;13.35;7.13;;;;;;;;;;344744;153;856197;-60
2022/02/15 02:01:11;;;;;;;14.38;7.21;;;;;;;;;;343015;154;856748;-60
2022/02/15 02:02:14;;;;;;;11.54;6.63;;;;;;;;;;346307;153;856377;-60
2022/02/15 02:03:16;;;;;;;12.64;7.31;;;;;;;;;;346086;153;856776;-60
2022/02/15 02:05:49;;;;;;;15.43;7.55;;;;;;;;;;345564;153;863919;-60
2022/02/15 02:06:50;;;;;;;11.84;6.83;;;;;;;;;;344499;153;857371;-60
2022/02/15 02:07:52;;;;;;;14.26;6.59;;;;;;;;;;343438;154;856914;-60
2022/02/15 02:08:54;;;;;;;10.51;6.44;;;;;;;;;;344662;153;864254;-60
2022/02/15 02:09:55;;;;;;;14.21;7.61;;;;;;;;;;345067;153;864266;-61
2022/02/15 02:10:57;;;;;;;16.82;7.02;;;;;;;;;;345574;153;862538;-60
2022/02/15 02:11:59;;;;;;;13.65;7.00;;;;;;;;;;344383;154;856968;-60
2022/02/15 02:13:00;;;;;;;11.94;6.29;;;;;;;;;;338204;155;856320;-60
2022/02/15 02:14:02;;;;;;;15.82;7.13;;;;;;;;;;346861;152;864382;-60
2022/02/15 02:15:04;;;;;;;13.74;6.72;;;;;;;;;;346007;153;856632;-60
2022/02/15 02:16:06;;;;;;;14.57;6.26;;;;;;;;;;344984;153;859031;-60
2022/02/15 02:17:08;;;;;;;15.72;7.01;;;;;;;;;;345946;153;856192;-60
2022/02/15 02:18:09;;;;;;;12.64;7.26;;;;;;;;;;345874;154;856440;-60
2022/02/15 02:19:11;;;;;;;16.47;6.63;;;;;;;;;;344904;154;863938;-60
2022/02/15 02:20:13;;;;;;;15.26;6.91;;;;;;;;;;345603;153;856363;-60
2022/02/15 02:21:15;;;;;;;14.66;6.87;;;;;;;;;;344770;153;856207;-60
2022/02/15 02:22:17;;;;;;;13.96;7.00;;;;;;;;;;344123;154;856718;-60
2022/02/15 02:23:19;;;;;;;15.72;7.36;;;;;;;;;;345091;154;864343;-60
2022/02/15 02:24:20;;;;;;;14.62;7.19;;;;;;;;;;339572;156;856490;-60
2022/02/15 02:25:22;;;;;;;11.89;6.61;;;;;;;;;;341854;154;856284;-60
2022/02/15 02:26:24;;;;;;;17.63;7.35;;;;;;;;;;340715;155;864039;-60
2022/02/15 02:27:27;;;;;;;13.23;6.74;;;;;;;;;;342202;154;864050;-60
2022/02/15 02:28:28;;;;;;;15.29;7.16;;;;;;;;;;342106;155;863924;-61
2022/02/15 02:29:30;;;;;;;15.64;7.42;;;;;;;;;;340196;154;856265;-60
2022/02/15 02:30:31;;;;;;;11.96;6.70;;;;;;;;;;342481;155;863927;-60
2022/02/15 02:31:33;;;;;;;12.01;6.61;;;;;;;;;;343012;155;864462;-60
2022/02/15 02:32:34;;;;;;;16.69;6.99;;;;;;;;;;340469;155;856377;-60
2022/02/15 02:46:05;;;;;;;12.64;5.96;;;;;;;-2.94;66.23;100615.91;374754;141;872670;-62
2022/02/15 02:47:07;;;;;;;13.81;6.95;;;;;;;-3.05;66.29;100615.27;365717;144;857219;-60
2022/02/15 02:48:09;;;;;;;12.94;7.29;;;;;;;-3.07;66.45;100615.98;366458;144;857362;-61
2022/02/15 02:49:10;;;;;;;13.85;6.42;;;;;;;-3.08;66.42;100615.09;367039;144;856391;-60
2022/02/15 02:50:13;;;;;;;15.16;7.02;;;;;;;-3.09;66.42;100619.30;359109;147;863934;-59
2022/02/15 02:51:15;;;;;;;15.05;7.43;;;;;;;-3.10;66.44;100616.66;357016;144;856920;-58
2022/02/15 02:52:17;;;;;;;14.74;7.46;;;;;;;-3.11;66.51;100610.73;366680;144;856114;-59
2022/02/15 02:53:18;;;;;;;12.39;7.00;;;;;;;-3.11;66.56;100613.27;367208;144;864603;-59
2022/02/15 02:54:20;;;;;;;15.66;7.89;;;;;;;-3.12;66.56;100610.63;367135;144;856285;-59
2022/02/15 02:55:22;;;;;;;13.75;6.99;;;;;;;-3.14;66.56;100608.03;366962;144;856228;-59
2022/02/15 02:56:25;;;;;;;14.38;6.96;;;;;;;-3.13;66.58;100613.95;366648;144;863794;-59
2022/02/15 02:57:26;;;;;;;13.61;6.75;;;;;;;-3.14;66.56;100619.80;366400;144;856496;-59
2022/02/15 02:58:28;;;;;;;14.81;6.66;;;;;;;-3.16;66.65;100611.24;367146;144;856982;-59
2022/02/15 02:59:30;;;;;;;14.06;7.10;;;;;;;-3.18;66.66;100611.17;368715;144;856674;-59
2022/02/15 03:00:32;;;;;;;14.15;7.71;;;;;;;-3.18;66.62;100618.77;367372;144;864464;-57
2022/02/15 03:01:34;;;;;;;13.13;6.95;;;;;;;-3.19;66.75;100614.45;366633;144;856089;-59
2022/02/15 03:02:36;;;;;;;15.63;6.90;;;;;;;-3.19;66.67;100618.66;366804;144;856560;-58
2022/02/15 03:03:38;;;;;;;15.46;7.35;;;;;;;-3.20;66.70;100619.45;366059;144;856210;-58
2022/02/15 03:04:39;;;;;;;16.39;7.26;;;;;;;-3.21;66.73;100620.23;366038;144;863953;-58
2022/02/15 03:05:41;;;;;;;14.93;6.97;;;;;;;-3.24;66.88;100615.84;366133;144;863783;-58
2022/02/15 03:06:43;;;;;;;16.07;7.53;;;;;;;-3.26;66.95;100618.30;366501;144;863785;-59
2022/02/15 03:07:45;;;;;;;16.89;7.17;;;;;;;-3.26;66.94;100619.95;366273;144;856062;-60
2022/02/15 03:08:47;;;;;;;17.16;7.80;;;;;;;-3.27;66.97;100610.60;368057;144;864090;-60
2022/02/15 03:09:48;;;;;;;19.28;7.75;;;;;;;-3.27;67.05;100618.20;366859;144;864114;-60
2022/02/15 03:15:44;;;;;;;16.50;7.02;;;;;;;-3.36;66.94;100603.35;371625;142;881373;-64
2022/02/15 03:16:46;;;;;;;14.14;7.29;;;;;;;-3.50;67.09;100616.86;364063;145;857299;-64
2022/02/15 03:17:48;;;;;;;13.88;6.85;;;;;;;-3.57;67.32;100610.53;363323;144;857134;-64
2022/02/15 03:18:50;;;;;;;15.39;7.25;;;;;;;-3.63;67.43;100608.53;363227;144;856442;-64
2022/02/15 03:19:52;;;;;;;15.49;7.31;;;;;;;-3.69;67.64;100610.69;360626;145;864134;-64
2022/02/15 03:20:53;;;;;;;15.53;7.21;;;;;;;-3.72;68.04;100610.48;362723;144;856393;-64
2022/02/15 03:21:55;;;;;;;13.46;6.86;;;;;;;-3.71;68.22;100614.76;362266;145;856729;-64
2022/02/15 03:22:57;;;;;;;14.36;7.27;;;;;;;-3.70;68.31;100616.54;361977;145;865074;-64
2022/02/15 03:23:58;;;;;;;16.18;7.94;;;;;;;-3.67;68.42;100614.19;363775;145;856595;-64
2022/02/15 03:25:00;;;;;;;16.64;7.66;;;;;;;-3.64;68.53;100606.78;363271;147;864165;-64
2022/02/15 03:26:02;;;;;;;15.07;7.42;;;;;;;-3.61;68.46;100612.03;363416;145;856462;-64
2022/02/15 03:27:04;;;;;;;14.61;7.46;;;;;;;-3.56;68.45;100617.34;362159;145;856256;-64
2022/02/15 03:28:06;;;;;;;12.71;7.27;;;;;;;-3.54;68.37;100614.14;363713;144;863829;-64
2022/02/15 03:29:10;;;;;;;12.68;7.27;;;;;;;-3.50;68.32;100610.12;362758;144;856309;-64
2022/02/15 03:30:13;;;;;;;13.07;7.26;;;;;;;-3.46;68.26;100613.72;361756;145;856299;-64
2022/02/15 03:31:14;;;;;;;13.51;7.04;;;;;;;-3.44;68.20;100613.02;362538;144;856839;-64
2022/02/15 03:32:16;;;;;;;15.57;7.08;;;;;;;-3.42;67.87;100611.45;362127;146;857205;-65
2022/02/15 03:33:18;;;;;;;19.81;8.16;;;;;;;-3.45;67.63;100608.73;362357;145;863975;-64
2022/02/15 03:34:20;;;;;;;14.35;7.21;;;;;;;-3.48;67.66;100608.55;361334;145;856247;-64
2022/02/15 03:35:22;;;;;;;14.26;7.29;;;;;;;-3.49;67.81;100616.93;358786;148;863990;-64
2022/02/15 03:36:24;;;;;;;17.23;7.57;;;;;;;-3.52;67.99;100604.98;359107;147;863939;-64
2022/02/15 03:37:26;;;;;;;17.81;7.49;;;;;;;-3.49;68.17;100611.01;357398;148;856592;-64
2022/02/15 03:38:27;;;;;;;15.64;7.81;;;;;;;-3.48;68.30;100616.15;357100;148;856635;-64
2022/02/15 03:39:29;;;;;;;17.43;7.77;;;;;;;-3.46;68.32;100608.66;358275;147;863956;-64
2022/02/15 03:43:11;;;;;;;14.61;7.93;;;;;;;-3.39;68.01;100621.75;354653;147;863954;-64
2022/02/15 03:44:13;;;;;;;15.85;7.25;;;;;;;-3.36;67.96;100616.02;357131;147;856159;-64
2022/02/15 03:45:15;;;;;;;16.38;7.73;;;;;;;-3.35;67.83;100614.34;356808;147;856158;-64
2022/02/15 03:46:17;;;;;;;19.98;8.44;;;;;;;-3.36;67.70;100621.08;356131;147;856656;-64
2022/02/15 03:47:19;;;;;;;21.73;8.59;;;;;;;-3.38;67.77;100615.91;357184;148;856742;-64
2022/02/15 03:48:21;;;;;;;19.11;8.31;;;;;;;-3.41;67.46;100619.94;358315;147;856820;-64
2022/02/15 03:49:23;;;;;;;17.86;8.61;;;;;;;-3.45;67.46;100620.53;357847;147;864016;-64
2022/02/15 03:50:25;;;;;;;28.55;10.45;;;;;;;-3.49;67.61;100619.46;358697;148;856279;-64
2022/02/15 03:51:27;;;;;;;23.15;9.13;;;;;;;-3.50;67.80;100615.18;358616;147;864214;-64
2022/02/15 03:52:29;;;;;;;21.01;9.26;;;;;;;-3.55;67.66;100619.98;361087;148;856250;-64
2022/02/15 03:53:30;;;;;;;26.91;9.81;;;;;;;-3.61;67.62;100612.03;358445;147;863755;-64
2022/02/15 03:54:32;;;;;;;15.30;7.66;;;;;;;-3.63;68.07;100617.77;357893;148;856567;-64
2022/02/15 03:55:34;;;;;;;12.78;7.57;;;;;;;-3.63;68.33;100615.23;358671;147;856143;-64
2022/02/15 03:56:36;;;;;;;19.04;8.23;;;;;;;-3.63;68.38;100613.59;355223;148;856633;-64
2022/02/15 03:57:38;;;;;;;20.81;8.96;;;;;;;-3.60;68.41;100613.78;357871;147;856701;-64
2022/02/15 03:58:40;;;;;;;25.21;9.25;;;;;;;-3.59;68.24;100612.11;357938;147;863765;-64
2022/02/15 03:59:42;;;;;;;19.76;8.57;;;;;;;-3.57;68.24;100613.95;358158;148;863720;-64
2022/02/15 04:00:44;;;;;;;22.58;9.05;;;;;;;-3.58;68.08;100614.74;356355;147;863858;-65
2022/02/15 04:01:46;;;;;;;26.73;10.13;;;;;;;-3.58;68.12;100616.38;358703;147;863735;-65
2022/02/15 04:02:47;;;;;;;18.84;8.31;;;;;;;-3.60;68.24;100613.78;360488;147;856303;-65
2022/02/15 04:03:49;;;;;;;26.42;9.73;;;;;;;-3.61;68.32;100612.03;357384;147;856390;-65
2022/02/15 04:04:51;;;;;;;26.97;10.21;;;;;;;;;;358094;147;856340;-65
2022/02/15 04:05:54;;;;;;;22.10;9.54;;;;;;;;;;358173;147;857922;-65
2022/02/15 04:06:58;;;;;;;31.52;10.75;;;;;;;;;;357939;148;864026;-65
2022/02/15 04:07:59;;;;;;;22.24;8.90;;;;;;;;;;356893;147;856839;-65
2022/02/15 04:09:01;;;;;;;21.29;8.49;;;;;;;;;;359165;147;856277;-64
2022/02/15 04:10:03;;;;;;;17.69;9.16;;;;;;;;;;357554;147;856313;-64
2022/02/15 04:11:04;;;;;;;17.76;8.35;;;;;;;;;;357205;147;863896;-64
2022/02/15 04:12:06;;;;;;;26.11;9.34;;;;;;;;;;357664;147;863920;-64
2022/02/15 04:13:07;;;;;;;21.75;8.72;;;;;;;;;;359478;147;856616;-64
2022/02/15 04:14:09;;;;;;;21.41;10.54;;;;;;;;;;357415;147;856268;-64
2022/02/15 04:15:11;;;;;;;21.68;10.13;;;;;;;;;;358081;148;863763;-64
2022/02/15 04:16:13;;;;;;;19.47;8.95;;;;;;;;;;358201;147;863663;-64
2022/02/15 04:17:15;;;;;;;15.71;8.29;;;;;;;;;;357179;147;856625;-65
2022/02/15 04:18:16;;;;;;;14.26;8.31;;;;;;;;;;358419;148;856486;-65
2022/02/15 04:19:18;;;;;;;19.03;8.30;;;;;;;;;;357228;147;856902;-64
2022/02/15 04:20:20;;;;;;;17.74;8.73;;;;;;;;;;359347;148;864071;-64
2022/02/15 04:21:23;;;;;;;17.99;8.24;;;;;;;;;;357886;148;856237;-64
2022/02/15 04:22:25;;;;;;;16.87;8.68;;;;;;;;;;356493;147;863870;-64
2022/02/15 04:23:26;;;;;;;16.04;8.31;;;;;;;;;;358428;147;856584;-64
2022/02/15 04:24:28;;;;;;;17.39;7.86;;;;;;;;;;357239;148;863838;-64
2022/02/15 04:25:30;;;;;;;15.07;7.30;;;;;;;;;;357439;147;856916;-64
2022/02/15 04:26:31;;;;;;;15.47;7.65;;;;;;;;;;357918;147;857015;-64
2022/02/15 04:27:33;;;;;;;17.81;7.81;;;;;;;;;;357525;147;863843;-64
2022/02/15 04:28:35;;;;;;;15.88;7.49;;;;;;;;;;359446;148;856627;-64
2022/02/15 04:29:36;;;;;;;16.46;7.42;;;;;;;;;;357940;147;863826;-65
2022/02/15 04:30:38;;;;;;;17.14;7.31;;;;;;;;;;358360;147;856723;-64
2022/02/15 04:31:39;;;;;;;13.61;7.70;;;;;;;;;;355714;147;863873;-64
2022/02/15 04:32:41;;;;;;;16.06;7.46;;;;;;;;;;357265;147;864591;-64
2022/02/15 04:33:42;;;;;;;13.13;6.76;;;;;;;;;;359941;147;864569;-64
2022/02/15 04:34:44;;;;;;;15.11;7.35;;;;;;;;;;357849;148;862074;-64
2022/02/15 04:35:46;;;;;;;13.39;6.94;;;;;;;;;;357744;148;863945;-64
2022/02/15 04:36:47;;;;;;;14.98;6.92;;;;;;;;;;357370;147;864033;-64
2022/02/15 04:37:49;;;;;;;14.26;7.06;;;;;;;;;;358524;147;864007;-64
2022/02/15 04:38:51;;;;;;;16.25;7.86;;;;;;;;;;358467;147;864043;-64
2022/02/15 04:39:52;;;;;;;14.14;6.74;;;;;;;;;;357780;148;864159;-65
2022/02/15 04:40:54;;;;;;;12.83;6.91;;;;;;;;;;356314;147;864098;-64
2022/02/15 04:41:56;;;;;;;15.39;6.80;;;;;;;;;;357633;147;864038;-64
2022/02/15 04:42:57;;;;;;;12.01;6.40;;;;;;;;;;357967;148;856586;-64
2022/02/15 04:43:59;;;;;;;13.79;6.19;;;;;;;;;;358658;147;856553;-63
2022/02/15 04:45:00;;;;;;;12.86;6.00;;;;;;;;;;358385;147;864101;-64
2022/02/15 04:46:02;;;;;;;13.19;6.46;;;;;;;;;;359277;148;864106;-64
2022/02/15 04:47:04;;;;;;;16.22;6.64;;;;;;;;;;357915;148;856275;-64
2022/02/15 04:48:05;;;;;;;12.51;6.36;;;;;;;;;;358917;147;859004;-64
2022/02/15 04:49:07;;;;;;;13.49;6.19;;;;;;;;;;357943;148;863986;-64
2022/02/15 04:50:09;;;;;;;12.65;6.11;;;;;;;;;;357939;147;864313;-63
2022/02/15 04:51:11;;;;;;;12.14;6.39;;;;;;;;;;359401;147;856127;-64
2022/02/15 04:52:12;;;;;;;14.93;6.60;;;;;;;;;;357990;147;864420;-64
2022/02/15 04:53:14;;;;;;;13.30;6.73;;;;;;;;;;358572;147;856731;-64
2022/02/15 04:54:17;;;;;;;12.84;6.56;;;;;;;;;;358699;147;859682;-64
2022/02/15 04:55:19;;;;;;;14.17;6.22;;;;;;;;;;357419;147;864777;-64
2022/02/15 04:56:21;;;;;;;12.32;6.38;;;;;;;;;;360686;147;856226;-64
2022/02/15 04:57:23;;;;;;;13.09;6.39;;;;;;;;;;357052;147;858364;-65
2022/02/15 04:58:24;;;;;;;11.45;6.48;;;;;;;;;;359238;148;863875;-64
2022/02/15 04:59:26;;;;;;;12.69;6.32;;;;;;;;;;358518;147;857613;-65
2022/02/15 05:00:27;;;;;;;15.75;6.77;;;;;;;;;;359054;147;864430;-64
2022/02/15 05:01:29;;;;;;;20.05;6.99;;;;;;;;;;358584;148;858536;-65
2022/02/15 05:02:31;;;;;;;20.52;8.23;;;;;;;;;;356448;147;856522;-64
2022/02/15 05:03:33;;;;;;;23.30;8.84;;;;;;;;;;354431;147;864558;-64
2022/02/15 05:04:50;;;;;;;32.19;11.61;;;;;;;;;;359256;147;856547;-64
2022/02/15 05:05:52;;;;;;;21.25;8.74;;;;;;;;;;358505;148;863982;-64
2022/02/15 05:06:54;;;;;;;19.11;8.79;;;;;;;;;;356872;147;856519;-64
2022/02/15 05:07:55;;;;;;;26.69;10.14;;;;;;;;;;357412;148;863679;-64
2022/02/15 05:08:57;;;;;;;31.54;11.01;;;;;;;;;;359517;148;864039;-66
2022/02/15 05:09:59;;;;;;;49.67;14.82;;;;;;;;;;358324;148;856455;-65
2022/02/15 05:11:00;;;;;;;52.21;15.00;;;;;;;;;;357166;148;861585;-65
2022/02/15 05:12:02;;;;;;;47.42;15.66;;;;;;;;;;357698;147;856850;-64
2022/02/15 05:13:08;;;;;;;56.18;15.86;;;;;;;;;;357510;147;864491;-64
2022/02/15 05:14:08;;;;;;;39.48;12.82;;;;;;;;;;357276;148;863868;-66
2022/02/15 05:15:12;;;;;;;47.06;13.76;;;;;;;;;;357095;147;857316;-65
2022/02/15 05:16:14;;;;;;;41.02;13.32;;;;;;;;;;358198;147;863717;-65
2022/02/15 05:17:16;;;;;;;33.34;11.69;;;;;;;;;;358478;147;856127;-65
2022/02/15 05:18:18;;;;;;;31.63;11.37;;;;;;;;;;359473;147;864047;-64
2022/02/15 05:19:19;;;;;;;34.08;11.24;;;;;;;;;;359257;148;864093;-65
2022/02/15 05:20:22;;;;;;;42.68;13.39;;;;;;;;;;358733;148;864193;-65
2022/02/15 05:21:24;;;;;;;30.72;11.04;;;;;;;;;;358293;147;856226;-65
2022/02/15 05:22:25;;;;;;;19.70;8.24;;;;;;;;;;357197;148;856296;-65
2022/02/15 05:23:28;;;;;;;19.09;8.10;;;;;;;;;;350836;150;864004;-65
2022/02/15 05:24:30;;;;;;;18.09;7.72;;;;;;;;;;356690;148;864067;-65
2022/02/15 05:25:31;;;;;;;22.15;8.24;;;;;;;;;;359033;147;856478;-65
2022/02/15 05:26:33;;;;;;;23.46;8.20;;;;;;;;;;357525;147;856589;-64
2022/02/15 05:27:34;;;;;;;18.14;7.52;;;;;;;;;;356255;147;863733;-65
2022/02/15 05:28:36;;;;;;;16.30;6.24;;;;;;;;;;357883;147;856214;-65
2022/02/15 05:29:37;;;;;;;13.19;6.51;;;;;;;;;;358646;147;859788;-65
2022/02/15 05:30:39;;;;;;;12.62;6.00;;;;;;;;;;356463;147;859009;-64
2022/02/15 05:31:41;;;;;;;14.85;6.41;;;;;;;;;;357809;147;863905;-65
2022/02/15 05:32:42;;;;;;;11.26;6.36;;;;;;;;;;358816;147;862217;-65
2022/02/15 05:33:44;;;;;;;16.88;6.94;;;;;;;;;;358812;147;856344;-65
2022/02/15 05:34:45;;;;;;;16.00;7.34;;;;;;;;;;357730;148;863967;-65
2022/02/15 05:35:47;;;;;;;15.34;7.04;;;;;;;;;;358757;147;857018;-65
2022/02/15 05:36:49;;;;;;;14.90;7.01;;;;;;;;;;358403;147;864063;-64
2022/02/15 05:37:51;;;;;;;20.04;7.53;;;;;;;;;;354438;151;864515;-65
2022/02/15 05:38:52;;;;;;;23.26;8.84;;;;;;;;;;356877;147;856639;-65
2022/02/15 05:39:54;;;;;;;15.51;7.06;;;;;;;;;;358364;147;864241;-65
2022/02/15 05:40:55;;;;;;;20.60;8.06;;;;;;;;;;357506;147;864148;-65
2022/02/15 05:41:58;;;;;;;23.88;9.07;;;;;;;;;;358691;147;864053;-65
2022/02/15 05:42:59;;;;;;;25.96;8.27;;;;;;;;;;358230;147;857031;-65
2022/02/15 05:44:01;;;;;;;28.01;9.65;;;;;;;;;;358432;147;863984;-64
2022/02/15 05:45:03;;;;;;;41.73;12.76;;;;;;;;;;360037;147;864075;-65
2022/02/15 05:46:04;;;;;;;33.20;11.91;;;;;;;;;;357307;147;863920;-65
2022/02/15 05:47:06;;;;;;;40.92;13.70;;;;;;;;;;359774;147;856399;-65
2022/02/15 05:48:07;;;;;;;39.50;12.48;;;;;;;;;;358938;147;859874;-65
2022/02/15 05:49:09;;;;;;;36.88;11.64;;;;;;;;;;358632;147;863885;-65
2022/02/15 05:51:31;;;;;;;38.12;12.42;;;;;;;;;;349932;150;856227;-65
2022/02/15 05:52:32;;;;;;;34.64;11.44;;;;;;;;;;358736;148;856915;-64
2022/02/15 05:53:34;;;;;;;33.76;11.48;;;;;;;;;;359719;147;863752;-64
2022/02/15 05:54:35;;;;;;;34.12;10.76;;;;;;;;;;356991;147;864204;-65
2022/02/15 05:55:37;;;;;;;27.06;9.74;;;;;;;;;;358374;148;864049;-65
2022/02/15 05:56:38;;;;;;;21.59;8.69;;;;;;;;;;358028;147;856712;-64
2022/02/15 05:57:40;;;;;;;17.88;8.02;;;;;;;;;;357878;147;861468;-64
2022/02/15 05:58:42;;;;;;;22.41;7.99;;;;;;;;;;357487;149;863751;-64
2022/02/15 05:59:44;;;;;;;21.50;8.91;;;;;;;;;;358595;147;856711;-65
2022/02/15 06:00:45;;;;;;;51.87;14.93;;;;;;;;;;358200;147;863927;-64
2022/02/15 06:01:47;;;;;;;44.32;12.70;;;;;;;;;;357391;149;863994;-64
2022/02/15 06:02:48;;;;;;;20.94;8.81;;;;;;;;;;357218;147;861150;-64